Airfield :
LOGIN :

Register | Disclaimer

   EN    FR    IT 

 










Legend :    VFR   Marginal VFR   IFR   Intensive IFR   Very Intensive IFR
Visi :
Ceiling :
>= 8 km
>= 3000ft
5 to 8 km
1000 to 3000 ft
1500m to 5 km
500 to 1000 ft
800 to 1500m
200 to 500 ft
< 800m
< 200 ft
Symbols :   Thunderstorms  Fog  Heavy snow  Heavy precipitations  Wind > 20 kt
SIGMETs :     Misc.  Thunderstorms  Icing  Turbulence  Mountain Waves  Volcanic Ashes






- Airport Elevation : 685 ft
- IATA code : VKO


UUWW - Vnukovo International

CURRENT METAR :
  • 021300Z 23007MPS 9999 -RA BKN019 03/M00 Q1002 R24/290050 NOSIG

EXPIRED METARs :
  • 021230Z 22007MPS 9999 -RA BKN020 04/M01 Q1002 R24/290050 NOSIG
  • 021200Z 22007MPS 9999 BKN020 04/M01 Q1002 R24/290050 NOSIG
  • 021130Z 24007MPS 9999 BKN020 04/M01 Q1002 R24/290050 NOSIG
  • 021100Z 23006MPS 9999 BKN019 04/M01 Q1002 R24/290050 NOSIG

TAF TAF UUWW
Valid from the 02 at 12:00 until the 03 at 12:00 UTC


021057Z 0212/0312 23007MPS 9000 BKN015 TX10/0312Z TN00/0303Z
TEMPO 0212/0217 22009G15MPS -SHRASN FEW007 BKN013CB
TEMPO 0307/0312 22009G15MPS



MET'MAP, your aeronautical weather chart ! - Copyright ORBIFLY December 2007 - Disclaimer

ORBIFLY MET'MAP TEAM :

Programming & Development : Alexandra Zaïnal
Concept & original design : Baudouin d'Aumeries
Assistance for programming : Marc-Olivier Méhu
Technical & hardware support : Manuel Goepfert

Contact : metmap@orbifly.com




SOURCES & CREDITS :

   NOAA